ADDS METAR Data INFO
IDs: Format: Raw Decoded Include TAF

Data at: 2037 UTC 22 Feb 2018

KJOT 222015Z AUTO 08012G18KT 10SM OVC024 06/01 A3040 RMK AO2 T00590012
KJOT 221955Z AUTO 07012G17KT 10SM OVC028 06/01 A3042 RMK AO2 T00610012
KJOT 221935Z AUTO 08010G17KT 10SM BKN030 OVC038 06/01 A3043 RMK AO2 T00620013
KJOT 221915Z AUTO 04014KT 10SM SCT025 BKN040 OVC046 07/02 A3044 RMK AO2 T00700016
KJOT 221855Z AUTO 07012G16KT 10SM SCT038 OVC046 06/01 A3045 RMK AO2 T00630013
KJOT 221835Z AUTO 07012G18KT 10SM OVC050 06/01 A3046 RMK AO2 T00640014
KJOT 221815Z AUTO 07010G16KT 10SM OVC050 06/01 A3047 RMK AO2 T00620010
KJOT 221755Z AUTO 07010G14KT 10SM OVC050 06/01 A3049 RMK AO2 T00600009 10061 20006
KJOT 221735Z AUTO 07010G14KT 10SM OVC050 06/01 A3049 RMK AO2 T00610010
KJOT 221715Z AUTO 05012G18KT 10SM BKN050 BKN110 06/01 A3049 RMK AO2 T00550009
KJOT 221655Z AUTO 05012KT 10SM BKN055 OVC100 05/01 A3051 RMK AO2 T00510008
KJOT 221635Z AUTO 07011G15KT 10SM BKN055 05/01 A3051 RMK AO2 T00450006
KJOT 221615Z AUTO 07013KT 10SM CLR 04/00 A3051 RMK AO2 T00400003
KJOT 221555Z AUTO 07011G17KT 10SM SCT049 BKN070 04/00 A3052 RMK AO2 T00370003
KJOT 221535Z AUTO 07012KT 10SM SCT049 SCT060 OVC080 03/00 A3053 RMK AO2 T00270000
KJOT 221515Z AUTO 05012G16KT 10SM OVC080 02/00 A3054 RMK AO2 T00231002
KJOT 221455Z AUTO 07010G14KT 10SM SCT070 OVC080 02/00 A3053 RMK AO2 T00201005
KJOT 221435Z AUTO 06009KT 10SM SCT070 OVC090 02/M01 A3054 RMK AO2 T00181007
KJOT 221415Z AUTO 05009KT 10SM BKN080 OVC090 02/M01 A3053 RMK AO2 T00151009
KJOT 221355Z AUTO 05008KT 10SM BKN080 BKN090 OVC120 01/M01 A3053 RMK AO2 T00131011
KJOT 221335Z AUTO 05008KT 10SM SCT070 BKN090 OVC120 01/M01 A3053 RMK AO2 T00111012
KJOT 221315Z AUTO 04008KT 10SM OVC110 01/M01 A3053 RMK AO2 T00101013
KJOT 221255Z AUTO 05008KT 10SM BKN110 01/M01 A3052 RMK AO2 T00091013
KJOT 221235Z AUTO 04008KT 10SM OVC110 01/M01 A3053 RMK AO2 T00081015
KJOT 221215Z AUTO 04009KT 10SM SCT070 OVC110 01/M02 A3053 RMK AO2 T00071016
KJOT 221155Z AUTO 05009KT 10SM BKN070 OVC120 01/M02 A3052 RMK AO2 LTG DSNT S T00071017 10007 21009
KJOT 221135Z AUTO 04010KT 10SM SCT070 OVC120 01/M02 A3052 RMK AO2 T00061019
KJOT 221115Z AUTO 04009G15KT 10SM SCT070 OVC120 01/M02 A3052 RMK AO2 T00061020
KJOT 221055Z AUTO 04009KT 10SM BKN120 01/M02 A3052 RMK AO2 T00051021
KJOT 221035Z AUTO 05010KT 10SM SCT120 00/M02 A3051 RMK AO2 T00031021
KJOT 221015Z AUTO 05011G15KT 10SM SCT075 00/M02 A3051 RMK AO2 T00021022
KJOT 220955Z AUTO 05009KT 10SM BKN075 00/M02 A3051 RMK AO2 T00011023
KJOT 220935Z AUTO 04009G14KT 10SM SCT075 00/M02 A3050 RMK AO2 T00001025
KJOT 220915Z AUTO 05009KT 10SM BKN075 00/M02 A3050 RMK AO2 T00001025
KJOT 220855Z AUTO 07010G14KT 10SM SCT075 00/M03 A3051 RMK AO2 T00001026
KJOT 220835Z AUTO 04008KT 10SM SCT075 00/M03 A3053 RMK AO2 T00001026
KJOT 220815Z AUTO 04009KT 10SM SCT075 00/M03 A3054 RMK AO2 T00001030
KJOT 220755Z AUTO 03009KT 10SM SCT075 00/M03 A3055 RMK AO2 T10011032
KJOT 220735Z AUTO 03009KT 10SM CLR 00/M03 A3056 RMK AO2 T10011035
KJOT 220715Z AUTO 04009KT 10SM CLR 00/M04 A3055 RMK AO2 T10031037
KJOT 220655Z AUTO 06009KT 10SM CLR 00/M04 A3055 RMK AO2 T10051038
KJOT 220635Z AUTO 03007KT 10SM CLR M01/M04 A3055 RMK AO2 T10061040
KJOT 220615Z AUTO 05007KT 10SM CLR M01/M04 A3055 RMK AO2 T10081040
KJOT 220555Z AUTO 04008G14KT 10SM CLR M01/M04 A3055 RMK AO2 T10091041 11005 21012 400161015
KJOT 220535Z AUTO 05007KT 10SM CLR M01/M04 A3057 RMK AO2 T10101043
KJOT 220515Z AUTO 04006KT 10SM CLR M01/M05 A3058 RMK AO2 T10111046
KJOT 220455Z AUTO 04009KT 10SM CLR M01/M05 A3059 RMK AO2 T10101050
KJOT 220435Z AUTO 03006KT 10SM CLR M01/M05 A3061 RMK AO2 T10101053
KJOT 220415Z AUTO 04007KT 10SM CLR M01/M05 A3063 RMK AO2 T10101055
KJOT 220355Z AUTO 04007KT 10SM CLR M01/M06 A3063 RMK AO2 T10101056
KJOT 220035Z AUTO 05005KT 10SM CLR M01/M06 A3062 RMK AO2 T10071057
KJOT 220015Z AUTO 05007KT 10SM CLR M01/M05 A3061 RMK AO2 T10071055
KJOT 212355Z AUTO 05008KT 10SM CLR 00/M05 A3061 RMK AO2 T10051053 10016 21005
KJOT 212335Z AUTO 04006KT 10SM CLR 00/M06 A3061 RMK AO2 T00001057
KJOT 212315Z AUTO 05007KT 10SM CLR 00/M06 A3060 RMK AO2 T00001056
KJOT 212255Z AUTO 06008KT 10SM CLR 00/M05 A3059 RMK AO2 T00001054
KJOT 212235Z AUTO 05007KT 10SM CLR 00/M05 A3059 RMK AO2 T00031048
KJOT 212215Z AUTO 05007KT 10SM CLR 01/M05 A3058 RMK AO2 T00071050
KJOT 212155Z AUTO 06007KT 10SM CLR 01/M05 A3058 RMK AO2 T00091051
KJOT 212135Z AUTO 04008KT 10SM CLR 01/M05 A3057 RMK AO2 T00101052
KJOT 212115Z AUTO 04007KT 10SM CLR 02/M04 A3058 RMK AO2 T00151045
KJOT 212055Z AUTO 02006KT 10SM CLR 01/M05 A3057 RMK AO2 T00141047
KJOT 212035Z AUTO 04008KT 10SM CLR 01/M04 A3057 RMK AO2 T00131045
KJOT 212015Z AUTO 02009KT 10SM CLR 01/M04 A3057 RMK AO2 T00111044
KJOT 211955Z AUTO 04007KT 020V080 10SM CLR 01/M04 A3056 RMK AO2 T00111044
KJOT 211935Z AUTO 05006KT 10SM CLR 01/M04 A3057 RMK AO2 T00121044
KJOT 211915Z AUTO 03007KT 10SM CLR 01/M04 A3056 RMK AO2 T00111040
KJOT 211855Z AUTO 01008KT 10SM CLR 01/M04 A3058 RMK AO2 T00081044
KJOT 211835Z AUTO 04008KT 10SM CLR 01/M05 A3057 RMK AO2 T00051046
KJOT 211815Z AUTO 02009KT 10SM CLR 00/M05 A3056 RMK AO2 T00021049
KJOT 211755Z AUTO 36008KT 10SM CLR 00/M04 A3057 RMK AO2 T00011045 10001 21015
KJOT 211735Z AUTO 35006KT 10SM CLR 00/M05 A3056 RMK AO2 T00001048
KJOT 211715Z AUTO 02006KT 10SM CLR 00/M05 A3057 RMK AO2 T10021051
KJOT 211655Z AUTO 35008KT 10SM CLR 00/M05 A3056 RMK AO2 T10051054
KJOT 211635Z AUTO 36008KT 10SM CLR M01/M05 A3056 RMK AO2 T10061053
KJOT 211615Z AUTO 36007KT 10SM CLR M01/M05 A3056 RMK AO2 T10081050
KJOT 211555Z AUTO 36007KT 10SM CLR M01/M05 A3055 RMK AO2 T10101053
KJOT 211535Z AUTO 35007KT 10SM CLR M01/M04 A3054 RMK AO2 T10121043
KJOT 211515Z AUTO 35008KT 10SM CLR M01/M04 A3052 RMK AO2 T10111044
KJOT 211455Z AUTO 36004KT 10SM CLR M01/M04 A3051 RMK AO2 T10111041
KJOT 211435Z AUTO 34005KT 10SM CLR M01/M04 A3050 RMK AO2 T10141040
KJOT 211415Z AUTO 34004KT 10SM CLR M01/M04 A3049 RMK AO2 T10131041
KJOT 211355Z AUTO 34007KT 10SM CLR M01/M04 A3048 RMK AO2 T10131037
KJOT 211335Z AUTO 36006KT 10SM CLR M01/M04 A3045 RMK AO2 T10141040
KJOT 211315Z AUTO 36008KT 10SM CLR M01/M04 A3044 RMK AO2 T10151040
KJOT 211255Z AUTO 34007KT 10SM CLR M01/M04 A3043 RMK AO2 T10131040